Time;durP1;ratioP1;P1;durP2;ratioP2;P2;SDS_P1;SDS_P2;PMS_P1;PMS_P2;Temp;Humidity;BMP_temperature;BMP_pressure;BME280_temperature;BME280_humidity;BME280_pressure;Samples;Min_cycle;Max_cycle;Signal;HPM_P1;HPM_P2
2021/06/07 00:01:44;;;;;;;51.30;23.87;;;21.40;55.30;;;;;;5054552;28;20522;-87
2021/06/07 00:04:10;;;;;;;44.63;24.77;;;21.50;55.30;;;;;;5054751;28;20440;-87
2021/06/07 00:06:36;;;;;;;41.40;25.10;;;21.40;55.40;;;;;;5054837;28;20476;-87
2021/06/07 00:09:07;;;;;;;40.87;23.57;;;21.40;55.30;;;;;;5055913;28;20452;-87
2021/06/07 00:11:34;;;;;;;45.93;25.27;;;21.30;55.40;;;;;;5055849;28;20436;-87
2021/06/07 00:14:02;;;;;;;41.90;22.20;;;21.30;55.40;;;;;;5055202;28;20452;-87
2021/06/07 00:16:29;;;;;;;41.43;22.53;;;21.30;55.30;;;;;;5055301;28;20448;-87
2021/06/07 00:18:56;;;;;;;48.93;25.10;;;21.10;55.80;;;;;;5054820;28;20543;-87
2021/06/07 00:21:26;;;;;;;43.37;22.40;;;21.20;55.90;;;;;;5054302;28;20996;-87
2021/06/07 00:23:53;;;;;;;46.60;22.53;;;21.20;55.60;;;;;;5054913;28;20437;-87
2021/06/07 00:26:21;;;;;;;37.70;23.10;;;21.20;55.20;;;;;;5053920;28;20448;-86
2021/06/07 00:28:48;;;;;;;43.50;23.50;;;21.10;55.50;;;;;;5054459;28;20562;-87
2021/06/07 00:31:16;;;;;;;46.60;25.10;;;21.10;55.60;;;;;;5055039;28;20444;-87
2021/06/07 00:33:43;;;;;;;44.97;23.87;;;21.10;56.30;;;;;;5054394;28;20444;-87
2021/06/07 00:36:12;;;;;;;55.50;28.50;;;20.90;56.10;;;;;;5054443;28;20444;-87
2021/06/07 00:38:39;;;;;;;34.80;21.47;;;20.90;56.20;;;;;;5054493;28;20468;-87
2021/06/07 00:41:07;;;;;;;40.00;24.33;;;21.00;55.80;;;;;;5054199;28;20507;-87
2021/06/07 00:43:36;;;;;;;52.50;25.70;;;20.90;56.30;;;;;;5054511;28;20456;-87
2021/06/07 00:46:02;;;;;;;57.43;28.00;;;21.10;55.70;;;;;;5054480;28;20481;-87
2021/06/07 00:48:29;;;;;;;49.43;28.07;;;21.00;56.00;;;;;;5053933;28;20468;-87
2021/06/07 00:50:57;;;;;;;52.40;26.37;;;21.00;56.10;;;;;;5054494;28;20474;-87
2021/06/07 00:53:24;;;;;;;55.10;30.80;;;21.10;55.80;;;;;;5054295;28;20908;-87
2021/06/07 00:55:54;;;;;;;42.40;25.40;;;21.10;55.60;;;;;;5053758;28;20448;-87
2021/06/07 00:58:23;;;;;;;38.03;20.93;;;20.90;56.00;;;;;;5054689;28;20516;-87
2021/06/07 01:00:51;;;;;;;43.40;21.83;;;20.90;55.70;;;;;;5054049;28;20490;-87
2021/06/07 01:03:18;;;;;;;44.87;24.43;;;21.00;55.90;;;;;;5054426;28;20440;-87
2021/06/07 01:05:47;;;;;;;43.40;23.03;;;21.20;55.30;;;;;;5054486;28;20558;-87
2021/06/07 01:08:14;;;;;;;45.83;24.30;;;21.20;55.20;;;;;;5054393;28;20501;-87
2021/06/07 01:10:41;;;;;;;39.53;19.37;;;21.00;55.70;;;;;;5058317;28;20526;-87
2021/06/07 01:13:08;;;;;;;42.93;24.93;;;21.10;55.40;;;;;;5063002;28;20468;-87
2021/06/07 01:15:35;;;;;;;35.87;22.07;;;21.10;55.50;;;;;;5063265;28;20459;-87
2021/06/07 01:18:03;;;;;;;58.40;28.70;;;21.00;55.40;;;;;;5066337;28;20448;-87
2021/06/07 01:20:29;;;;;;;45.07;25.50;;;21.10;55.50;;;;;;5066237;28;20582;-87
2021/06/07 01:22:57;;;;;;;44.83;23.40;;;20.90;55.70;;;;;;5066612;28;20511;-87
2021/06/07 01:25:26;;;;;;;43.83;23.97;;;20.80;56.50;;;;;;5065760;28;20527;-87
2021/06/07 01:27:53;;;;;;;60.67;28.73;;;21.10;55.30;;;;;;5062541;28;20901;-87
2021/06/07 01:30:24;;;;;;;55.53;27.40;;;21.10;55.80;;;;;;5056812;28;20992;-86
2021/06/07 01:32:50;;;;;;;50.60;24.83;;;21.00;55.20;;;;;;5056854;28;20452;-87
2021/06/07 01:35:17;;;;;;;54.87;28.77;;;21.00;55.70;;;;;;5056803;28;20531;-87
2021/06/07 01:37:45;;;;;;;44.97;24.13;;;20.80;56.40;;;;;;5057059;28;20479;-86
2021/06/07 01:40:16;;;;;;;53.00;28.23;;;20.70;56.00;;;;;;5056836;28;20475;-86
2021/06/07 01:42:43;;;;;;;54.93;24.63;;;20.70;56.10;;;;;;5056165;28;20476;-87
2021/06/07 01:45:10;;;;;;;52.13;26.50;;;20.80;55.90;;;;;;5056384;28;20463;-86
2021/06/07 01:47:37;;;;;;;60.20;26.20;;;20.70;56.20;;;;;;5056339;28;20549;-86
2021/06/07 01:50:05;;;;;;;59.73;30.63;;;20.60;56.70;;;;;;5059347;28;20475;-86
2021/06/07 01:52:33;;;;;;;43.33;22.97;;;20.60;56.90;;;;;;5061899;28;20439;-86
2021/06/07 01:54:59;;;;;;;54.73;25.43;;;20.30;57.40;;;;;;5057307;28;20451;-87
2021/06/07 01:57:28;;;;;;;55.63;26.47;;;20.50;57.30;;;;;;5055952;28;20793;-86
2021/06/07 01:59:54;;;;;;;47.83;22.90;;;20.50;57.30;;;;;;5055823;28;20491;-87
2021/06/07 02:02:21;;;;;;;60.73;29.83;;;20.70;56.60;;;;;;5056008;28;20475;-87
2021/06/07 02:04:47;;;;;;;60.57;28.00;;;20.80;56.10;;;;;;5056631;28;20475;-87
2021/06/07 02:07:13;;;;;;;54.53;25.97;;;20.90;56.10;;;;;;5057816;28;20463;-87
2021/06/07 02:09:40;;;;;;;57.87;28.90;;;20.80;56.40;;;;;;5057601;28;20495;-87
2021/06/07 02:12:08;;;;;;;40.47;22.30;;;20.80;56.40;;;;;;5058324;28;20557;-86
2021/06/07 02:14:35;;;;;;;45.80;24.43;;;20.80;56.20;;;;;;5056898;28;20482;-86
2021/06/07 02:17:02;;;;;;;47.90;25.63;;;20.90;56.10;;;;;;5057564;28;20935;-86
2021/06/07 02:19:28;;;;;;;52.30;25.23;;;21.00;55.70;;;;;;5057105;28;20468;-86
2021/06/07 02:21:55;;;;;;;48.30;24.83;;;20.70;56.50;;;;;;5058631;28;20539;-87
2021/06/07 02:24:21;;;;;;;53.20;24.07;;;20.60;56.80;;;;;;5065332;28;20429;-86
2021/06/07 02:26:47;;;;;;;48.83;26.70;;;20.70;56.60;;;;;;5066125;28;20440;-86
2021/06/07 02:31:42;;;;;;;49.90;25.73;;;20.70;55.80;;;;;;5072574;22;20535;-86
2021/06/07 02:34:11;;;;;;;47.27;26.83;;;20.70;57.10;;;;;;5055812;28;20593;-87
2021/06/07 02:36:39;;;;;;;55.20;28.03;;;20.80;56.20;;;;;;5056136;28;20932;-87
2021/06/07 02:39:12;;;;;;;56.37;32.30;;;20.90;55.80;;;;;;5056460;28;20425;-87
2021/06/07 02:41:39;;;;;;;57.83;30.93;;;20.90;55.90;;;;;;5055492;28;20536;-86
2021/06/07 02:44:07;;;;;;;58.43;29.17;;;21.00;55.80;;;;;;5056339;28;20448;-87
2021/06/07 02:46:33;;;;;;;49.10;26.27;;;20.90;56.10;;;;;;5056180;28;20455;-86
2021/06/07 02:49:01;;;;;;;67.70;29.23;;;20.90;56.00;;;;;;5055892;28;20461;-86
2021/06/07 02:51:28;;;;;;;41.87;23.10;;;20.80;56.40;;;;;;5056037;28;20551;-87
2021/06/07 02:53:54;;;;;;;49.80;25.40;;;20.80;55.80;;;;;;5055699;28;20448;-87
2021/06/07 02:56:21;;;;;;;48.30;24.57;;;20.80;56.50;;;;;;5056217;28;20793;-87
2021/06/07 02:58:47;;;;;;;50.23;25.03;;;20.70;56.70;;;;;;5055968;28;20447;-86
2021/06/07 03:01:13;;;;;;;56.13;26.30;;;20.70;56.70;;;;;;5056347;28;20953;-87
2021/06/07 03:03:40;;;;;;;62.03;26.90;;;20.40;56.80;;;;;;5072155;28;20782;-87
2021/06/07 03:06:08;;;;;;;56.67;26.57;;;20.40;57.30;;;;;;5076504;28;20452;-87
2021/06/07 03:08:36;;;;;;;61.03;26.60;;;20.20;58.10;;;;;;5077989;28;20451;-87
2021/06/07 03:11:05;;;;;;;54.33;26.57;;;19.90;58.60;;;;;;5077516;28;20460;-87
2021/06/07 03:13:32;;;;;;;53.27;25.40;;;20.20;58.10;;;;;;5077556;28;20491;-88
2021/06/07 03:16:00;;;;;;;68.40;31.40;;;20.30;57.80;;;;;;5077401;28;20444;-87
2021/06/07 03:18:28;;;;;;;64.67;27.27;;;20.20;58.60;;;;;;5077450;28;20444;-88
2021/06/07 03:20:55;;;;;;;53.97;27.00;;;20.40;57.70;;;;;;5077229;28;20486;-87
2021/06/07 03:23:25;;;;;;;59.47;29.00;;;20.40;57.50;;;;;;5076993;28;20436;-87
2021/06/07 03:25:53;;;;;;;54.53;25.93;;;20.50;57.00;;;;;;5077083;28;20434;-87
2021/06/07 03:28:21;;;;;;;62.27;27.67;;;20.40;57.20;;;;;;5077133;28;20439;-87
2021/06/07 03:30:48;;;;;;;55.07;26.30;;;20.70;57.00;;;;;;5077355;28;20876;-89
2021/06/07 03:33:15;;;;;;;56.93;26.23;;;20.90;56.50;;;;;;5077370;28;20436;-87
2021/06/07 03:35:43;;;;;;;50.20;23.87;;;20.70;56.60;;;;;;5077417;28;20455;-87
2021/06/07 03:38:10;;;;;;;54.27;26.00;;;20.80;56.20;;;;;;5077943;28;20483;-87
2021/06/07 03:40:40;;;;;;;49.20;25.13;;;20.70;56.50;;;;;;5074701;28;20471;-87
2021/06/07 03:43:09;;;;;;;68.10;28.27;;;20.60;56.50;;;;;;5055577;28;20790;-87
2021/06/07 03:45:36;;;;;;;66.33;27.83;;;20.60;56.70;;;;;;5056595;28;20517;-87
2021/06/07 03:48:04;;;;;;;66.03;27.50;;;20.50;57.50;;;;;;5065649;28;20471;-88
2021/06/07 03:50:32;;;;;;;62.13;28.10;;;20.60;57.20;;;;;;5075865;28;20468;-87
2021/06/07 03:52:59;;;;;;;62.33;27.63;;;20.40;57.30;;;;;;5075336;28;20448;-87
2021/06/07 03:55:27;;;;;;;50.40;24.77;;;20.70;56.90;;;;;;5076059;28;20419;-86
2021/06/07 03:57:56;;;;;;;57.30;27.63;;;20.50;57.30;;;;;;5075442;28;20448;-86
2021/06/07 04:00:25;;;;;;;56.77;27.27;;;20.60;57.20;;;;;;5075262;28;20472;-86
2021/06/07 04:02:51;;;;;;;64.47;27.80;;;20.30;57.80;;;;;;5075725;28;20488;-86
2021/06/07 04:05:18;;;;;;;52.30;26.70;;;20.40;57.90;;;;;;5076466;28;20474;-86
2021/06/07 04:07:45;;;;;;;66.53;27.37;;;20.60;57.30;;;;;;5076432;28;20448;-86
2021/06/07 04:10:15;;;;;;;55.53;23.83;;;20.70;56.80;;;;;;5076002;28;20437;-86
2021/06/07 04:12:42;;;;;;;63.83;27.93;;;20.80;56.70;;;;;;5076235;28;20444;-86
2021/06/07 04:15:11;;;;;;;63.67;27.97;;;20.90;56.20;;;;;;5076880;28;20432;-86
2021/06/07 04:17:38;;;;;;;69.37;29.80;;;20.90;56.10;;;;;;5076344;28;20472;-86
2021/06/07 04:20:06;;;;;;;62.17;28.43;;;21.00;56.20;;;;;;5076259;28;20456;-86
2021/06/07 04:22:32;;;;;;;76.07;26.20;;;20.70;56.50;;;;;;5076233;28;20479;-86
2021/06/07 04:24:59;;;;;;;63.90;29.17;;;20.90;55.50;;;;;;5076782;28;20417;-86
2021/06/07 04:27:25;;;;;;;72.07;29.23;;;20.90;56.10;;;;;;5076682;28;20452;-86
2021/06/07 04:29:52;;;;;;;55.40;26.43;;;21.00;55.70;;;;;;5075978;28;20465;-87
2021/06/07 04:32:20;;;;;;;46.40;21.83;;;20.80;56.80;;;;;;5076395;28;20470;-86
2021/06/07 04:34:47;;;;;;;61.37;27.40;;;20.50;56.00;;;;;;5076127;28;20512;-85
2021/06/07 04:37:13;;;;;;;66.40;28.10;;;20.70;56.80;;;;;;5075361;28;20436;-87
2021/06/07 04:39:40;;;;;;;62.97;25.37;;;20.80;56.10;;;;;;5075816;28;20483;-87
2021/06/07 04:42:07;;;;;;;58.10;27.70;;;20.90;55.80;;;;;;5076273;28;20491;-86
2021/06/07 04:44:34;;;;;;;63.10;28.50;;;20.80;56.30;;;;;;5079028;28;20428;-86
2021/06/07 04:47:01;;;;;;;57.50;26.90;;;20.80;56.60;;;;;;5079149;28;20478;-86
2021/06/07 04:49:29;;;;;;;70.77;27.00;;;20.70;56.90;;;;;;5079446;28;20462;-86
2021/06/07 04:51:56;;;;;;;67.63;26.40;;;20.70;56.70;;;;;;5080291;28;20456;-86
2021/06/07 04:54:22;;;;;;;61.07;27.17;;;20.70;56.70;;;;;;5080463;28;20428;-86
2021/06/07 04:56:48;;;;;;;58.63;26.93;;;20.40;57.20;;;;;;5080146;28;20435;-86
2021/06/07 04:59:15;;;;;;;77.03;29.00;;;20.40;58.60;;;;;;5080342;28;20431;-86
2021/06/07 05:01:41;;;;;;;60.53;25.60;;;20.40;57.40;;;;;;5080053;28;20488;-86
2021/06/07 05:04:08;;;;;;;68.87;28.00;;;20.40;57.60;;;;;;5080027;28;20448;-88
2021/06/07 05:06:35;;;;;;;60.93;26.70;;;20.40;57.80;;;;;;5080208;28;20469;-86
2021/06/07 05:09:02;;;;;;;57.67;26.03;;;20.30;57.70;;;;;;5080064;28;20427;-86
2021/06/07 05:11:29;;;;;;;52.20;25.53;;;20.10;58.80;;;;;;5064827;28;20475;-85
2021/06/07 05:13:55;;;;;;;50.50;25.33;;;20.30;58.60;;;;;;5057488;28;20448;-85
2021/06/07 05:16:21;;;;;;;48.10;24.70;;;20.40;57.60;;;;;;5057432;28;20448;-86
2021/06/07 05:18:48;;;;;;;57.80;25.80;;;20.40;57.50;;;;;;5056970;28;20536;-86
2021/06/07 05:21:14;;;;;;;50.77;25.97;;;20.60;57.30;;;;;;5057067;28;20480;-86
2021/06/07 05:23:42;;;;;;;46.13;24.57;;;20.80;57.00;;;;;;5056871;28;21008;-85
2021/06/07 05:26:10;;;;;;;56.97;24.27;;;21.00;56.20;;;;;;5056132;28;20448;-86
2021/06/07 05:28:37;;;;;;;67.97;25.73;;;21.00;56.10;;;;;;5056482;28;20543;-86
2021/06/07 05:31:03;;;;;;;51.67;25.60;;;21.00;56.60;;;;;;5055962;28;20511;-85
2021/06/07 05:33:30;;;;;;;58.47;26.80;;;21.10;55.70;;;;;;5055986;28;20439;-86
2021/06/07 05:35:58;;;;;;;51.63;25.63;;;21.10;55.70;;;;;;5055632;28;20490;-85
2021/06/07 05:38:25;;;;;;;49.10;24.40;;;21.00;55.90;;;;;;5055405;28;20511;-85
2021/06/07 05:40:54;;;;;;;50.27;23.97;;;21.10;55.60;;;;;;5055894;28;20543;-86
2021/06/07 05:43:23;;;;;;;63.10;26.07;;;21.20;55.20;;;;;;5055802;28;20865;-86
2021/06/07 05:45:50;;;;;;;50.00;24.00;;;21.30;55.20;;;;;;5055642;28;20490;-86
2021/06/07 05:48:16;;;;;;;50.20;24.50;;;21.20;55.30;;;;;;5055332;28;20909;-86
2021/06/07 05:50:43;;;;;;;33.97;18.10;;;21.10;55.20;;;;;;5055518;28;20527;-86
2021/06/07 05:53:11;;;;;;;26.83;14.00;;;21.20;55.60;;;;;;5055591;28;20441;-86
2021/06/07 05:55:41;;;;;;;31.90;16.50;;;21.50;54.00;;;;;;5054802;28;20491;-85
2021/06/07 05:58:15;;;;;;;44.47;21.50;;;21.60;53.10;;;;;;5055227;28;20456;-86
2021/06/07 06:00:44;;;;;;;39.60;21.30;;;21.70;54.00;;;;;;5055205;28;20837;-85
2021/06/07 06:03:11;;;;;;;48.43;22.90;;;21.60;54.20;;;;;;5054941;28;20903;-85
2021/06/07 06:05:38;;;;;;;36.73;18.37;;;21.50;54.30;;;;;;5055202;28;20483;-86
2021/06/07 06:08:06;;;;;;;45.80;23.60;;;21.70;53.70;;;;;;5054427;28;20491;-86
2021/06/07 06:10:33;;;;;;;39.63;20.90;;;21.70;53.20;;;;;;5054962;28;20559;-86
2021/06/07 06:12:59;;;;;;;43.10;21.40;;;21.70;53.20;;;;;;5055306;28;20468;-85
2021/06/07 06:15:27;;;;;;;39.10;20.07;;;21.80;53.30;;;;;;5055009;28;20532;-86
2021/06/07 06:17:55;;;;;;;45.40;22.60;;;21.70;53.20;;;;;;5053974;28;20768;-86
2021/06/07 06:20:24;;;;;;;44.00;22.40;;;21.40;53.90;;;;;;5054120;28;20484;-85
2021/06/07 06:22:50;;;;;;;54.43;29.23;;;21.30;54.60;;;;;;5054751;28;20485;-85
2021/06/07 06:25:18;;;;;;;52.20;25.17;;;21.50;54.50;;;;;;5055689;28;20913;-85
2021/06/07 06:27:45;;;;;;;36.60;20.00;;;21.40;54.70;;;;;;5054994;28;20475;-86
2021/06/07 06:30:16;;;;;;;36.80;19.87;;;21.30;54.60;;;;;;5054544;28;20476;-86
2021/06/07 06:32:45;;;;;;;34.67;19.40;;;21.10;55.80;;;;;;5054431;28;20790;-85
2021/06/07 06:35:13;;;;;;;39.77;19.77;;;21.00;55.50;;;;;;5054417;28;20452;-85
2021/06/07 06:37:41;;;;;;;37.33;20.33;;;20.90;55.60;;;;;;5054717;28;20507;-86
2021/06/07 06:40:08;;;;;;;22.07;12.80;;;20.80;55.90;;;;;;5055647;28;20460;-85
2021/06/07 06:42:35;;;;;;;44.17;22.80;;;20.80;56.30;;;;;;5056056;28;20570;-85
2021/06/07 06:45:03;;;;;;;43.13;23.80;;;21.10;55.90;;;;;;5055618;28;20563;-86
2021/06/07 06:47:29;;;;;;;39.77;20.10;;;21.30;55.50;;;;;;5055683;28;20468;-86
2021/06/07 06:49:58;;;;;;;44.90;20.70;;;21.50;55.00;;;;;;5055510;28;20943;-86
2021/06/07 06:52:25;;;;;;;45.57;21.17;;;21.40;54.80;;;;;;5056199;28;20444;-88
2021/06/07 06:54:51;;;;;;;36.40;21.10;;;21.60;54.80;;;;;;5055450;28;20452;-87
2021/06/07 06:57:18;;;;;;;42.93;21.47;;;21.60;54.60;;;;;;5056559;28;20539;-87
2021/06/07 06:59:44;;;;;;;35.30;19.07;;;21.50;54.90;;;;;;5055625;28;20479;-87
2021/06/07 07:02:11;;;;;;;43.20;22.83;;;21.70;54.20;;;;;;5055938;28;20512;-88
2021/06/07 07:04:37;;;;;;;49.30;23.30;;;21.80;54.10;;;;;;5055795;28;20452;-87
2021/06/07 07:07:05;;;;;;;32.50;18.23;;;21.60;54.10;;;;;;5055102;28;20510;-86
2021/06/07 07:09:31;;;;;;;29.23;16.10;;;21.50;54.30;;;;;;5055823;28;20452;-86
2021/06/07 07:11:58;;;;;;;40.00;18.70;;;21.20;55.20;;;;;;5055260;28;20440;-86
2021/06/07 07:14:24;;;;;;;29.33;17.90;;;21.20;55.60;;;;;;5055447;28;20455;-86
2021/06/07 07:16:53;;;;;;;29.07;17.23;;;21.40;55.30;;;;;;5056111;28;20444;-86
2021/06/07 07:19:20;;;;;;;37.00;17.93;;;21.60;54.60;;;;;;5055856;28;20916;-87
2021/06/07 07:21:47;;;;;;;28.60;16.27;;;21.10;55.50;;;;;;5055399;28;20582;-86
2021/06/07 07:24:15;;;;;;;27.07;14.73;;;21.20;55.20;;;;;;5055590;28;20514;-86
2021/06/07 07:26:42;;;;;;;26.50;16.17;;;20.70;57.10;;;;;;5055365;28;20439;-87
2021/06/07 07:29:09;;;;;;;37.83;18.10;;;21.00;56.60;;;;;;5055173;28;20950;-86
2021/06/07 07:31:35;;;;;;;32.60;17.53;;;20.90;56.00;;;;;;5054566;28;20621;-87
2021/06/07 07:34:02;;;;;;;24.63;14.77;;;20.60;57.10;;;;;;5055177;28;20456;-87
2021/06/07 07:36:28;;;;;;;30.90;17.23;;;20.80;56.80;;;;;;5054837;28;20448;-87
2021/06/07 07:38:55;;;;;;;26.53;15.17;;;21.10;56.10;;;;;;5054715;28;20463;-87
2021/06/07 07:41:25;;;;;;;29.87;17.40;;;21.30;55.20;;;;;;5054249;28;20845;-87
2021/06/07 07:43:51;;;;;;;26.43;15.60;;;21.30;55.30;;;;;;5054723;28;20448;-87
2021/06/07 07:46:18;;;;;;;32.10;17.67;;;21.30;55.20;;;;;;5054861;28;20815;-87
2021/06/07 07:48:44;;;;;;;24.43;14.30;;;21.40;55.20;;;;;;5063146;28;20456;-87
2021/06/07 07:51:11;;;;;;;33.00;16.37;;;21.30;55.50;;;;;;5057035;28;20833;-87
2021/06/07 07:53:37;;;;;;;31.60;16.43;;;21.50;55.30;;;;;;5055166;28;20675;-87
2021/06/07 07:56:06;;;;;;;28.70;15.13;;;21.60;55.00;;;;;;5055892;28;20439;-87
2021/06/07 07:58:34;;;;;;;25.60;14.97;;;21.60;54.90;;;;;;5054873;28;20501;-87
2021/06/07 08:01:00;;;;;;;30.43;15.43;;;21.20;55.60;;;;;;5055499;28;20456;-87
2021/06/07 08:03:29;;;;;;;26.67;14.50;;;21.30;56.00;;;;;;5074739;28;20479;-87
2021/06/07 08:05:56;;;;;;;31.33;15.53;;;21.40;55.80;;;;;;5056110;28;20476;-87
2021/06/07 08:08:22;;;;;;;28.37;15.37;;;21.70;55.20;;;;;;5055103;28;20792;-87
2021/06/07 08:10:55;;;;;;;24.83;14.40;;;21.80;54.60;;;;;;5058259;28;21000;-87
2021/06/07 08:13:24;;;;;;;26.67;14.73;;;21.80;54.70;;;;;;5057258;28;20436;-87
2021/06/07 08:15:52;;;;;;;24.37;13.77;;;21.90;54.50;;;;;;5056677;28;20520;-87
2021/06/07 08:18:18;;;;;;;26.77;15.83;;;21.90;54.50;;;;;;5054766;28;20458;-86
2021/06/07 08:20:45;;;;;;;25.20;13.87;;;21.70;55.40;;;;;;5058671;28;20486;-86
2021/06/07 08:23:11;;;;;;;24.00;13.90;;;21.90;55.00;;;;;;5058649;28;20471;-87
2021/06/07 08:25:38;;;;;;;23.40;13.33;;;22.00;55.00;;;;;;5058499;28;20452;-87
2021/06/07 08:28:08;;;;;;;23.90;13.80;;;22.10;54.40;;;;;;5058812;28;20482;-87
2021/06/07 08:30:36;;;;;;;24.23;12.47;;;22.20;54.80;;;;;;5081470;22;20488;-88
2021/06/07 08:33:04;;;;;;;25.30;12.60;;;22.30;53.80;;;;;;5058902;28;20440;-89
2021/06/07 08:35:30;;;;;;;19.13;12.40;;;22.40;53.80;;;;;;5058104;28;20513;-89
2021/06/07 08:37:57;;;;;;;21.97;11.17;;;22.50;53.30;;;;;;5058811;28;20512;-89
2021/06/07 08:40:24;;;;;;;22.43;15.33;;;22.20;53.70;;;;;;5058158;28;20471;-89
2021/06/07 08:42:51;;;;;;;21.13;12.60;;;22.30;53.80;;;;;;5058489;28;20568;-90
2021/06/07 08:45:20;;;;;;;23.33;12.23;;;22.60;52.90;;;;;;5059091;28;20453;-89
2021/06/07 08:47:48;;;;;;;23.67;12.97;;;22.40;53.20;;;;;;5058851;28;20472;-89
2021/06/07 08:50:19;;;;;;;21.67;12.20;;;22.40;53.80;;;;;;5059721;28;20495;-89
2021/06/07 08:52:45;;;;;;;15.67;10.57;;;22.20;53.70;;;;;;5058091;28;20408;-89
2021/06/07 08:55:13;;;;;;;16.53;10.03;;;22.20;53.70;;;;;;5058166;28;20459;-90
2021/06/07 08:57:42;;;;;;;16.13;9.77;;;22.30;53.80;;;;;;5058010;28;20503;-89
2021/06/07 09:00:11;;;;;;;15.13;10.17;;;22.50;53.50;;;;;;5059831;28;21027;-90
2021/06/07 09:02:40;;;;;;;18.10;10.53;;;22.50;53.70;;;;;;5060385;28;20471;-88
2021/06/07 09:05:07;;;;;;;21.67;10.03;;;22.60;53.60;;;;;;5060714;28;20443;-89
2021/06/07 09:07:51;;;;;;;16.03;10.10;;;22.30;54.00;;;;;;5059884;28;20500;-90
2021/06/07 09:10:18;;;;;;;13.27;9.83;;;22.30;53.80;;;;;;5058721;28;20843;-89
2021/06/07 09:12:46;;;;;;;15.80;10.00;;;22.50;54.10;;;;;;5057386;28;20452;-89
2021/06/07 09:15:25;;;;;;;16.70;9.93;;;22.50;54.40;;;;;;5057795;28;20456;-89
2021/06/07 09:17:51;;;;;;;17.73;9.40;;;22.80;53.10;;;;;;5058124;28;20432;-89
2021/06/07 09:20:20;;;;;;;14.97;8.07;;;22.70;52.70;;;;;;5057767;28;20468;-90
2021/06/07 09:22:51;;;;;;;10.83;7.70;;;22.60;52.80;;;;;;5058171;28;20478;-90
2021/06/07 09:25:20;;;;;;;12.93;8.17;;;22.40;53.00;;;;;;5057639;28;20995;-89
2021/06/07 09:28:18;;;;;;;15.57;9.27;;;22.50;52.50;;;;;;5057753;28;20444;-89
2021/06/07 09:30:48;;;;;;;13.30;9.70;;;22.50;53.20;;;;;;5056930;28;20590;-90
2021/06/07 09:33:28;;;;;;;15.00;9.60;;;22.50;53.30;;;;;;5057137;28;20813;-90
2021/06/07 09:36:18;;;;;;;11.07;7.73;;;22.50;53.20;;;;;;5057793;28;20460;-89
2021/06/07 09:39:02;;;;;;;13.37;8.57;;;22.60;53.50;;;;;;5057945;28;20444;-89
2021/06/07 09:41:31;;;;;;;16.37;9.30;;;22.70;52.80;;;;;;5056817;28;20472;-90
2021/06/07 09:43:59;;;;;;;13.13;8.90;;;22.50;53.10;;;;;;5064390;28;20436;-90
2021/06/07 09:46:28;;;;;;;11.90;8.47;;;22.00;54.00;;;;;;5057591;28;20480;-90
2021/06/07 09:49:06;;;;;;;17.53;9.03;;;21.80;53.90;;;;;;5056552;28;20444;-89
2021/06/07 09:51:32;;;;;;;11.43;8.00;;;21.70;54.50;;;;;;5056699;28;20492;-90
2021/06/07 09:54:00;;;;;;;12.10;8.90;;;22.00;53.60;;;;;;5057590;28;20531;-89
2021/06/07 09:56:28;;;;;;;15.30;8.07;;;22.30;53.80;;;;;;5056720;28;20451;-89
2021/06/07 09:58:55;;;;;;;20.70;8.93;;;22.40;53.20;;;;;;5056800;28;20435;-89
2021/06/07 10:01:27;;;;;;;13.27;8.97;;;22.70;52.60;;;;;;5055869;28;20968;-89
2021/06/07 10:03:55;;;;;;;15.73;9.50;;;22.60;52.70;;;;;;5056012;28;20432;-89
2021/06/07 10:06:25;;;;;;;10.80;7.47;;;22.70;52.50;;;;;;5056262;28;20436;-89
2021/06/07 10:08:57;;;;;;;12.00;8.77;;;22.60;52.90;;;;;;5056087;28;20487;-90
2021/06/07 10:11:27;;;;;;;16.03;8.40;;;22.60;53.30;;;;;;5055967;28;20492;-89
2021/06/07 10:14:09;;;;;;;12.33;8.40;;;22.60;54.00;;;;;;5056222;28;20522;-89
2021/06/07 10:16:36;;;;;;;12.63;9.50;;;22.60;53.10;;;;;;5056598;28;20494;-90
2021/06/07 10:19:07;;;;;;;12.13;8.10;;;22.80;52.80;;;;;;5055972;28;20483;-89
2021/06/07 10:21:34;;;;;;;13.33;9.10;;;22.50;53.40;;;;;;5056338;28;20456;-90
2021/06/07 10:24:01;;;;;;;15.27;9.47;;;22.90;53.30;;;;;;5055714;28;20984;-89
2021/06/07 10:26:29;;;;;;;13.27;8.90;;;23.10;53.60;;;;;;5055854;28;20467;-89
2021/06/07 10:28:57;;;;;;;10.50;7.87;;;23.10;53.20;;;;;;5058615;28;20487;-89
2021/06/07 10:31:26;;;;;;;9.87;6.83;;;22.90;53.70;;;;;;5072889;28;20479;-90
2021/06/07 10:33:58;;;;;;;10.33;8.00;;;23.10;52.90;;;;;;5060223;28;20535;-89
2021/06/07 10:36:36;;;;;;;11.23;8.10;;;22.90;53.70;;;;;;5067247;28;20894;-90
2021/06/07 10:39:25;;;;;;;14.40;7.30;;;23.20;53.20;;;;;;5065902;28;20440;-90
2021/06/07 10:42:17;;;;;;;10.33;7.70;;;23.30;52.50;;;;;;5064724;28;20479;-89
2021/06/07 10:44:47;;;;;;;12.80;8.53;;;23.50;52.80;;;;;;5067138;28;20428;-89
2021/06/07 10:47:15;;;;;;;17.93;8.27;;;23.50;52.30;;;;;;5066867;28;20463;-89
2021/06/07 10:49:44;;;;;;;12.50;8.67;;;23.30;52.50;;;;;;5057808;28;20964;-89
2021/06/07 10:52:13;;;;;;;12.67;8.87;;;23.50;52.30;;;;;;5057079;28;20523;-89
2021/06/07 10:54:42;;;;;;;15.90;9.27;;;23.50;52.00;;;;;;5055669;28;20432;-89
2021/06/07 10:57:32;;;;;;;12.30;8.80;;;23.50;52.20;;;;;;5056022;28;20425;-89
2021/06/07 11:00:00;;;;;;;16.67;10.60;;;23.20;52.10;;;;;;5055059;28;20465;-90
2021/06/07 11:02:34;;;;;;;15.80;9.73;;;23.10;53.30;;;;;;5055502;28;20489;-89
2021/06/07 11:05:04;;;;;;;15.07;10.70;;;23.50;52.50;;;;;;5055821;28;20409;-89
2021/06/07 11:07:31;;;;;;;15.73;11.10;;;23.40;51.80;;;;;;5055228;28;20488;-89
2021/06/07 11:10:23;;;;;;;16.50;11.13;;;23.30;52.10;;;;;;5054711;28;21061;-89
2021/06/07 11:12:53;;;;;;;19.13;11.77;;;23.40;51.90;;;;;;5058826;28;20781;-89
2021/06/07 11:15:22;;;;;;;16.63;11.30;;;23.30;52.00;;;;;;5078027;28;20431;-88
2021/06/07 11:17:49;;;;;;;19.93;12.90;;;23.40;52.40;;;;;;5074698;28;20810;-89
2021/06/07 11:20:34;;;;;;;17.80;11.40;;;23.60;52.00;;;;;;5055873;28;20463;-90
2021/06/07 11:23:12;;;;;;;21.30;12.80;;;23.60;52.20;;;;;;5054941;28;20532;-90
2021/06/07 11:25:50;;;;;;;19.23;12.23;;;23.80;51.80;;;;;;5054645;28;20460;-90
2021/06/07 11:28:32;;;;;;;19.83;11.73;;;24.00;51.10;;;;;;5055050;28;20432;-88
2021/06/07 11:31:00;;;;;;;20.50;12.63;;;24.00;50.80;;;;;;5054151;28;20491;-89
2021/06/07 11:33:27;;;;;;;28.47;11.97;;;24.10;50.50;;;;;;5054701;28;20436;-89
2021/06/07 11:35:54;;;;;;;22.57;12.53;;;23.80;51.00;;;;;;5054664;28;20436;-89
2021/06/07 11:38:34;;;;;;;17.13;10.97;;;23.90;50.70;;;;;;5055480;28;20565;-89
2021/06/07 11:41:02;;;;;;;17.57;11.53;;;23.80;50.50;;;;;;5063507;28;20448;-89
2021/06/07 11:43:55;;;;;;;16.07;11.53;;;23.80;51.00;;;;;;5064453;28;20486;-89
2021/06/07 11:46:59;;;;;;;17.20;11.67;;;23.60;51.30;;;;;;5065163;28;20472;-89
2021/06/07 11:49:26;;;;;;;18.07;11.57;;;23.70;51.00;;;;;;5066552;28;20459;-90
2021/06/07 11:52:02;;;;;;;16.17;11.23;;;23.30;51.70;;;;;;5066793;28;20468;-88
2021/06/07 11:54:52;;;;;;;15.60;10.43;;;23.20;51.40;;;;;;5063906;28;20928;-89
2021/06/07 11:57:22;;;;;;;16.87;11.37;;;23.30;51.40;;;;;;5056921;28;20432;-89
2021/06/07 12:00:00;;;;;;;16.17;10.00;;;23.10;51.90;;;;;;5055614;28;20457;-88
2021/06/07 12:02:28;;;;;;;18.37;12.07;;;23.20;51.70;;;;;;5054248;28;20819;-89
2021/06/07 12:04:55;;;;;;;17.07;10.63;;;23.30;52.30;;;;;;5054962;28;20452;-89
2021/06/07 12:07:22;;;;;;;19.93;9.67;;;23.30;52.20;;;;;;5055177;28;20452;-89
2021/06/07 12:09:52;;;;;;;19.10;11.77;;;23.60;51.00;;;;;;5054439;28;20852;-89
2021/06/07 12:12:20;;;;;;;19.57;12.57;;;23.70;51.30;;;;;;5054015;28;20444;-89
2021/06/07 12:14:47;;;;;;;20.10;11.77;;;23.70;51.80;;;;;;5054744;28;20460;-89
2021/06/07 12:17:19;;;;;;;16.73;11.53;;;23.70;51.70;;;;;;5055148;28;20448;-88
2021/06/07 12:19:49;;;;;;;17.17;11.20;;;23.80;51.60;;;;;;5054297;28;20837;-88
2021/06/07 12:22:33;;;;;;;17.77;12.17;;;23.90;51.30;;;;;;5054681;28;20468;-89
2021/06/07 12:25:16;;;;;;;19.67;12.30;;;23.60;51.70;;;;;;5054986;28;20475;-89
2021/06/07 12:30:27;;;;;;;16.80;11.30;;;23.70;51.10;;;;;;5054393;28;20466;-89
2021/06/07 12:32:56;;;;;;;26.70;14.90;;;23.50;52.30;;;;;;5054137;28;20520;-88
2021/06/07 12:35:24;;;;;;;20.77;13.90;;;23.20;52.50;;;;;;5054235;28;20451;-88
2021/06/07 12:37:52;;;;;;;23.67;15.67;;;22.90;52.60;;;;;;5054848;28;20539;-88
2021/06/07 12:40:22;;;;;;;22.50;15.40;;;22.90;53.10;;;;;;5055089;28;20476;-88
2021/06/07 12:42:53;;;;;;;23.60;14.70;;;23.30;52.70;;;;;;5054845;28;20525;-89